sensor_id;sensor_type;location;lat;lon;timestamp;P1;durP1;ratioP1;P2;durP2;ratioP2
11763;SDS011;5939;56.522;14.950;2023-02-28T00:01:07;1.20;;;1.10;;
11763;SDS011;5939;56.522;14.950;2023-02-28T00:03:33;1.30;;;1.20;;
11763;SDS011;5939;56.522;14.950;2023-02-28T00:06:00;1.10;;;1.00;;
11763;SDS011;5939;56.522;14.950;2023-02-28T00:08:27;1.10;;;1.00;;
11763;SDS011;5939;56.522;14.950;2023-02-28T00:10:53;1.00;;;0.90;;
11763;SDS011;5939;56.522;14.950;2023-02-28T00:13:19;1.87;;;1.13;;
11763;SDS011;5939;56.522;14.950;2023-02-28T00:15:44;1.13;;;1.03;;
11763;SDS011;5939;56.522;14.950;2023-02-28T00:18:10;1.67;;;1.10;;
11763;SDS011;5939;56.522;14.950;2023-02-28T00:20:36;1.13;;;1.00;;
11763;SDS011;5939;56.522;14.950;2023-02-28T00:23:02;1.53;;;1.20;;
11763;SDS011;5939;56.522;14.950;2023-02-28T00:25:28;1.17;;;1.07;;
11763;SDS011;5939;56.522;14.950;2023-02-28T00:27:53;1.37;;;1.07;;
11763;SDS011;5939;56.522;14.950;2023-02-28T00:30:20;1.37;;;1.10;;
11763;SDS011;5939;56.522;14.950;2023-02-28T00:32:49;1.60;;;1.20;;
11763;SDS011;5939;56.522;14.950;2023-02-28T00:35:15;1.20;;;1.10;;
11763;SDS011;5939;56.522;14.950;2023-02-28T00:37:41;1.57;;;1.20;;
11763;SDS011;5939;56.522;14.950;2023-02-28T00:40:07;1.93;;;1.23;;
11763;SDS011;5939;56.522;14.950;2023-02-28T00:42:34;2.80;;;1.50;;
11763;SDS011;5939;56.522;14.950;2023-02-28T00:45:00;1.23;;;1.13;;
11763;SDS011;5939;56.522;14.950;2023-02-28T00:47:28;1.63;;;1.23;;
11763;SDS011;5939;56.522;14.950;2023-02-28T00:49:54;1.30;;;1.20;;
11763;SDS011;5939;56.522;14.950;2023-02-28T00:52:19;1.13;;;1.03;;
11763;SDS011;5939;56.522;14.950;2023-02-28T00:54:46;1.23;;;1.13;;
11763;SDS011;5939;56.522;14.950;2023-02-28T00:57:12;1.30;;;1.20;;
11763;SDS011;5939;56.522;14.950;2023-02-28T00:59:37;1.67;;;1.20;;
11763;SDS011;5939;56.522;14.950;2023-02-28T01:02:03;1.20;;;1.10;;
11763;SDS011;5939;56.522;14.950;2023-02-28T01:04:29;1.40;;;1.30;;
11763;SDS011;5939;56.522;14.950;2023-02-28T01:06:54;1.10;;;1.00;;
11763;SDS011;5939;56.522;14.950;2023-02-28T01:09:20;1.30;;;1.20;;
11763;SDS011;5939;56.522;14.950;2023-02-28T01:11:46;1.33;;;1.20;;
11763;SDS011;5939;56.522;14.950;2023-02-28T01:14:12;1.40;;;1.20;;
11763;SDS011;5939;56.522;14.950;2023-02-28T01:16:40;1.17;;;1.07;;
11763;SDS011;5939;56.522;14.950;2023-02-28T01:19:06;1.30;;;1.20;;
11763;SDS011;5939;56.522;14.950;2023-02-28T01:21:31;1.50;;;1.27;;
11763;SDS011;5939;56.522;14.950;2023-02-28T01:23:57;1.53;;;1.10;;
11763;SDS011;5939;56.522;14.950;2023-02-28T01:26:23;1.20;;;1.10;;
11763;SDS011;5939;56.522;14.950;2023-02-28T01:28:50;1.30;;;1.03;;
11763;SDS011;5939;56.522;14.950;2023-02-28T01:31:17;1.17;;;1.00;;
11763;SDS011;5939;56.522;14.950;2023-02-28T01:33:43;1.30;;;1.20;;
11763;SDS011;5939;56.522;14.950;2023-02-28T01:36:11;1.50;;;1.00;;
11763;SDS011;5939;56.522;14.950;2023-02-28T01:38:44;1.47;;;1.33;;
11763;SDS011;5939;56.522;14.950;2023-02-28T01:41:17;1.97;;;1.23;;
11763;SDS011;5939;56.522;14.950;2023-02-28T01:43:53;1.10;;;1.00;;
11763;SDS011;5939;56.522;14.950;2023-02-28T01:46:19;1.70;;;1.23;;
11763;SDS011;5939;56.522;14.950;2023-02-28T01:48:46;1.43;;;1.33;;
11763;SDS011;5939;56.522;14.950;2023-02-28T01:51:37;1.30;;;1.10;;
11763;SDS011;5939;56.522;14.950;2023-02-28T01:54:24;1.03;;;1.00;;
11763;SDS011;5939;56.522;14.950;2023-02-28T01:56:53;2.00;;;1.33;;
11763;SDS011;5939;56.522;14.950;2023-02-28T01:59:31;1.50;;;1.40;;
11763;SDS011;5939;56.522;14.950;2023-02-28T02:02:01;1.20;;;1.10;;
11763;SDS011;5939;56.522;14.950;2023-02-28T02:04:30;1.10;;;1.00;;
11763;SDS011;5939;56.522;14.950;2023-02-28T02:07:02;1.30;;;1.20;;
11763;SDS011;5939;56.522;14.950;2023-02-28T02:09:29;1.30;;;1.13;;
11763;SDS011;5939;56.522;14.950;2023-02-28T02:11:54;1.43;;;1.00;;
11763;SDS011;5939;56.522;14.950;2023-02-28T02:31:49;1.03;;;0.93;;
11763;SDS011;5939;56.522;14.950;2023-02-28T02:34:20;1.20;;;1.10;;
11763;SDS011;5939;56.522;14.950;2023-02-28T02:37:04;1.70;;;1.07;;
11763;SDS011;5939;56.522;14.950;2023-02-28T02:39:44;1.20;;;1.10;;
11763;SDS011;5939;56.522;14.950;2023-02-28T02:42:28;1.30;;;1.20;;
11763;SDS011;5939;56.522;14.950;2023-02-28T02:45:15;2.27;;;1.30;;
11763;SDS011;5939;56.522;14.950;2023-02-28T02:47:47;1.20;;;1.10;;
11763;SDS011;5939;56.522;14.950;2023-02-28T02:50:17;1.20;;;1.10;;
11763;SDS011;5939;56.522;14.950;2023-02-28T02:52:50;1.37;;;1.10;;
11763;SDS011;5939;56.522;14.950;2023-02-28T02:55:18;1.20;;;1.10;;
11763;SDS011;5939;56.522;14.950;2023-02-28T02:57:48;2.30;;;1.37;;
11763;SDS011;5939;56.522;14.950;2023-02-28T03:00:26;1.37;;;1.10;;
11763;SDS011;5939;56.522;14.950;2023-02-28T03:02:59;1.33;;;1.13;;
11763;SDS011;5939;56.522;14.950;2023-02-28T03:05:26;2.10;;;1.23;;
11763;SDS011;5939;56.522;14.950;2023-02-28T03:07:57;1.63;;;1.40;;
11763;SDS011;5939;56.522;14.950;2023-02-28T03:10:31;1.20;;;1.10;;
11763;SDS011;5939;56.522;14.950;2023-02-28T03:13:08;1.53;;;1.00;;
11763;SDS011;5939;56.522;14.950;2023-02-28T03:19:33;1.43;;;1.30;;
11763;SDS011;5939;56.522;14.950;2023-02-28T03:27:51;1.23;;;1.03;;
11763;SDS011;5939;56.522;14.950;2023-02-28T03:33:23;1.07;;;0.90;;
11763;SDS011;5939;56.522;14.950;2023-02-28T03:36:01;1.40;;;1.30;;
11763;SDS011;5939;56.522;14.950;2023-02-28T03:41:11;1.27;;;1.17;;
11763;SDS011;5939;56.522;14.950;2023-02-28T03:43:50;2.13;;;1.30;;
11763;SDS011;5939;56.522;14.950;2023-02-28T03:46:21;1.10;;;1.00;;
11763;SDS011;5939;56.522;14.950;2023-02-28T03:49:13;1.20;;;1.00;;
11763;SDS011;5939;56.522;14.950;2023-02-28T03:51:49;1.40;;;1.00;;
11763;SDS011;5939;56.522;14.950;2023-02-28T03:54:23;1.20;;;1.10;;
11763;SDS011;5939;56.522;14.950;2023-02-28T03:57:02;1.30;;;1.10;;
11763;SDS011;5939;56.522;14.950;2023-02-28T03:59:47;1.30;;;1.00;;
11763;SDS011;5939;56.522;14.950;2023-02-28T04:02:25;1.07;;;0.97;;
11763;SDS011;5939;56.522;14.950;2023-02-28T04:04:51;1.13;;;1.03;;
11763;SDS011;5939;56.522;14.950;2023-02-28T04:07:16;1.50;;;1.00;;
11763;SDS011;5939;56.522;14.950;2023-02-28T04:09:42;1.20;;;1.10;;
11763;SDS011;5939;56.522;14.950;2023-02-28T04:12:08;1.40;;;1.30;;
11763;SDS011;5939;56.522;14.950;2023-02-28T04:14:34;1.10;;;1.00;;
11763;SDS011;5939;56.522;14.950;2023-02-28T04:17:00;1.63;;;1.17;;
11763;SDS011;5939;56.522;14.950;2023-02-28T04:19:25;1.10;;;1.00;;
11763;SDS011;5939;56.522;14.950;2023-02-28T04:21:51;1.10;;;1.00;;
11763;SDS011;5939;56.522;14.950;2023-02-28T04:24:21;1.23;;;1.07;;
11763;SDS011;5939;56.522;14.950;2023-02-28T04:26:50;1.40;;;1.10;;
11763;SDS011;5939;56.522;14.950;2023-02-28T04:29:18;1.57;;;1.40;;
11763;SDS011;5939;56.522;14.950;2023-02-28T04:31:49;1.00;;;0.90;;
11763;SDS011;5939;56.522;14.950;2023-02-28T04:34:14;4.70;;;2.83;;
11763;SDS011;5939;56.522;14.950;2023-02-28T04:36:41;1.80;;;0.97;;
11763;SDS011;5939;56.522;14.950;2023-02-28T04:39:07;1.57;;;1.20;;
11763;SDS011;5939;56.522;14.950;2023-02-28T04:41:34;1.30;;;1.20;;
11763;SDS011;5939;56.522;14.950;2023-02-28T04:44:00;1.10;;;1.00;;
11763;SDS011;5939;56.522;14.950;2023-02-28T04:46:26;1.50;;;1.20;;
11763;SDS011;5939;56.522;14.950;2023-02-28T04:48:51;1.53;;;1.00;;
11763;SDS011;5939;56.522;14.950;2023-02-28T04:51:18;2.00;;;1.10;;
11763;SDS011;5939;56.522;14.950;2023-02-28T04:53:44;1.20;;;1.07;;
11763;SDS011;5939;56.522;14.950;2023-02-28T04:56:12;1.27;;;1.17;;
11763;SDS011;5939;56.522;14.950;2023-02-28T04:58:39;1.20;;;1.10;;
11763;SDS011;5939;56.522;14.950;2023-02-28T05:01:05;1.07;;;0.90;;
11763;SDS011;5939;56.522;14.950;2023-02-28T05:03:52;1.30;;;1.20;;
11763;SDS011;5939;56.522;14.950;2023-02-28T05:06:19;1.47;;;1.20;;
11763;SDS011;5939;56.522;14.950;2023-02-28T05:08:46;2.13;;;1.30;;
11763;SDS011;5939;56.522;14.950;2023-02-28T05:11:16;1.37;;;1.10;;
11763;SDS011;5939;56.522;14.950;2023-02-28T05:13:48;1.00;;;1.00;;
11763;SDS011;5939;56.522;14.950;2023-02-28T05:16:14;1.23;;;1.13;;
11763;SDS011;5939;56.522;14.950;2023-02-28T05:18:40;1.77;;;1.00;;
11763;SDS011;5939;56.522;14.950;2023-02-28T05:23:50;1.23;;;1.10;;
11763;SDS011;5939;56.522;14.950;2023-02-28T05:26:16;1.20;;;1.10;;
11763;SDS011;5939;56.522;14.950;2023-02-28T05:28:42;1.73;;;1.10;;
11763;SDS011;5939;56.522;14.950;2023-02-28T05:31:08;1.20;;;1.00;;
11763;SDS011;5939;56.522;14.950;2023-02-28T05:33:36;1.20;;;1.00;;
11763;SDS011;5939;56.522;14.950;2023-02-28T05:36:02;1.60;;;0.90;;
11763;SDS011;5939;56.522;14.950;2023-02-28T05:38:28;1.10;;;0.90;;
11763;SDS011;5939;56.522;14.950;2023-02-28T05:40:53;2.07;;;1.07;;
11763;SDS011;5939;56.522;14.950;2023-02-28T05:43:19;0.93;;;0.77;;
11763;SDS011;5939;56.522;14.950;2023-02-28T05:45:44;1.47;;;1.17;;
11763;SDS011;5939;56.522;14.950;2023-02-28T05:48:10;1.13;;;0.93;;
11763;SDS011;5939;56.522;14.950;2023-02-28T05:50:35;1.07;;;0.97;;
11763;SDS011;5939;56.522;14.950;2023-02-28T05:53:01;1.20;;;0.97;;
11763;SDS011;5939;56.522;14.950;2023-02-28T05:55:27;2.23;;;1.07;;
11763;SDS011;5939;56.522;14.950;2023-02-28T05:57:53;1.30;;;1.00;;
11763;SDS011;5939;56.522;14.950;2023-02-28T06:00:18;1.20;;;1.00;;
11763;SDS011;5939;56.522;14.950;2023-02-28T06:02:44;1.33;;;0.90;;
11763;SDS011;5939;56.522;14.950;2023-02-28T06:05:14;1.70;;;1.20;;
11763;SDS011;5939;56.522;14.950;2023-02-28T06:07:41;1.43;;;1.07;;
11763;SDS011;5939;56.522;14.950;2023-02-28T06:10:09;1.03;;;0.97;;
11763;SDS011;5939;56.522;14.950;2023-02-28T06:12:36;1.07;;;0.97;;
11763;SDS011;5939;56.522;14.950;2023-02-28T06:15:02;1.20;;;1.10;;
11763;SDS011;5939;56.522;14.950;2023-02-28T06:17:28;1.20;;;1.10;;
11763;SDS011;5939;56.522;14.950;2023-02-28T06:19:54;1.40;;;0.93;;
11763;SDS011;5939;56.522;14.950;2023-02-28T06:22:20;1.07;;;0.90;;
11763;SDS011;5939;56.522;14.950;2023-02-28T06:24:45;1.17;;;1.07;;
11763;SDS011;5939;56.522;14.950;2023-02-28T06:27:11;1.20;;;1.10;;
11763;SDS011;5939;56.522;14.950;2023-02-28T06:29:37;1.10;;;0.93;;
11763;SDS011;5939;56.522;14.950;2023-02-28T06:32:04;1.20;;;1.10;;
11763;SDS011;5939;56.522;14.950;2023-02-28T06:34:31;0.90;;;0.90;;
11763;SDS011;5939;56.522;14.950;2023-02-28T06:36:58;1.03;;;0.93;;
11763;SDS011;5939;56.522;14.950;2023-02-28T06:39:27;0.93;;;0.90;;
11763;SDS011;5939;56.522;14.950;2023-02-28T06:41:55;1.33;;;1.10;;
11763;SDS011;5939;56.522;14.950;2023-02-28T06:44:21;1.20;;;1.10;;
11763;SDS011;5939;56.522;14.950;2023-02-28T06:46:47;1.70;;;1.00;;
11763;SDS011;5939;56.522;14.950;2023-02-28T06:49:13;1.00;;;0.90;;
11763;SDS011;5939;56.522;14.950;2023-02-28T06:51:40;1.40;;;1.07;;
11763;SDS011;5939;56.522;14.950;2023-02-28T06:54:09;1.53;;;1.20;;
11763;SDS011;5939;56.522;14.950;2023-02-28T06:56:36;1.10;;;1.00;;
11763;SDS011;5939;56.522;14.950;2023-02-28T06:59:02;1.37;;;1.00;;
11763;SDS011;5939;56.522;14.950;2023-02-28T07:01:29;1.13;;;1.00;;
11763;SDS011;5939;56.522;14.950;2023-02-28T07:03:56;1.70;;;1.20;;
11763;SDS011;5939;56.522;14.950;2023-02-28T07:06:22;1.07;;;0.93;;
11763;SDS011;5939;56.522;14.950;2023-02-28T07:08:49;1.20;;;1.10;;
11763;SDS011;5939;56.522;14.950;2023-02-28T07:11:16;1.20;;;1.03;;
11763;SDS011;5939;56.522;14.950;2023-02-28T07:13:43;2.23;;;1.30;;
11763;SDS011;5939;56.522;14.950;2023-02-28T07:16:09;1.23;;;1.07;;
11763;SDS011;5939;56.522;14.950;2023-02-28T07:18:36;1.20;;;1.10;;
11763;SDS011;5939;56.522;14.950;2023-02-28T07:21:03;1.00;;;0.90;;
11763;SDS011;5939;56.522;14.950;2023-02-28T07:23:30;1.13;;;1.03;;
11763;SDS011;5939;56.522;14.950;2023-02-28T07:25:56;1.23;;;1.10;;
11763;SDS011;5939;56.522;14.950;2023-02-28T07:28:21;1.20;;;1.03;;
11763;SDS011;5939;56.522;14.950;2023-02-28T07:30:47;1.50;;;1.20;;
11763;SDS011;5939;56.522;14.950;2023-02-28T07:33:13;1.33;;;1.07;;
11763;SDS011;5939;56.522;14.950;2023-02-28T07:35:39;1.13;;;1.07;;
11763;SDS011;5939;56.522;14.950;2023-02-28T07:38:05;1.20;;;1.10;;
11763;SDS011;5939;56.522;14.950;2023-02-28T07:40:32;2.03;;;1.20;;
11763;SDS011;5939;56.522;14.950;2023-02-28T07:42:59;1.50;;;1.17;;
11763;SDS011;5939;56.522;14.950;2023-02-28T07:45:26;1.53;;;1.17;;
11763;SDS011;5939;56.522;14.950;2023-02-28T07:47:51;1.83;;;1.30;;
11763;SDS011;5939;56.522;14.950;2023-02-28T07:50:17;1.77;;;1.10;;
11763;SDS011;5939;56.522;14.950;2023-02-28T07:52:43;1.30;;;1.20;;
11763;SDS011;5939;56.522;14.950;2023-02-28T07:55:09;3.20;;;1.20;;
11763;SDS011;5939;56.522;14.950;2023-02-28T07:57:35;1.67;;;1.40;;
11763;SDS011;5939;56.522;14.950;2023-02-28T08:00:03;1.30;;;1.20;;
11763;SDS011;5939;56.522;14.950;2023-02-28T08:02:30;1.40;;;1.30;;
11763;SDS011;5939;56.522;14.950;2023-02-28T08:04:55;1.80;;;1.37;;
11763;SDS011;5939;56.522;14.950;2023-02-28T08:07:21;1.43;;;1.27;;
11763;SDS011;5939;56.522;14.950;2023-02-28T08:09:47;1.30;;;1.20;;
11763;SDS011;5939;56.522;14.950;2023-02-28T08:12:13;1.83;;;1.67;;
11763;SDS011;5939;56.522;14.950;2023-02-28T08:14:39;2.03;;;1.70;;
11763;SDS011;5939;56.522;14.950;2023-02-28T08:17:05;2.13;;;1.20;;
11763;SDS011;5939;56.522;14.950;2023-02-28T08:19:31;1.70;;;1.60;;
11763;SDS011;5939;56.522;14.950;2023-02-28T08:21:57;1.40;;;1.30;;
11763;SDS011;5939;56.522;14.950;2023-02-28T08:24:23;2.13;;;1.70;;
11763;SDS011;5939;56.522;14.950;2023-02-28T08:26:49;1.47;;;1.37;;
11763;SDS011;5939;56.522;14.950;2023-02-28T08:29:15;1.53;;;1.43;;
11763;SDS011;5939;56.522;14.950;2023-02-28T08:31:41;1.60;;;1.50;;
11763;SDS011;5939;56.522;14.950;2023-02-28T08:34:08;1.80;;;1.60;;
11763;SDS011;5939;56.522;14.950;2023-02-28T08:36:36;1.93;;;1.50;;
11763;SDS011;5939;56.522;14.950;2023-02-28T08:39:02;1.73;;;1.40;;
11763;SDS011;5939;56.522;14.950;2023-02-28T08:41:28;2.87;;;1.60;;
11763;SDS011;5939;56.522;14.950;2023-02-28T08:43:54;1.70;;;1.60;;
11763;SDS011;5939;56.522;14.950;2023-02-28T08:46:20;1.47;;;1.37;;
11763;SDS011;5939;56.522;14.950;2023-02-28T08:48:46;2.37;;;1.40;;
11763;SDS011;5939;56.522;14.950;2023-02-28T08:51:15;1.90;;;1.70;;
11763;SDS011;5939;56.522;14.950;2023-02-28T08:53:44;1.50;;;1.40;;
11763;SDS011;5939;56.522;14.950;2023-02-28T08:56:14;1.60;;;1.50;;
11763;SDS011;5939;56.522;14.950;2023-02-28T08:58:42;1.87;;;1.30;;
11763;SDS011;5939;56.522;14.950;2023-02-28T09:03:37;2.00;;;1.50;;
11763;SDS011;5939;56.522;14.950;2023-02-28T09:06:03;1.50;;;1.30;;
11763;SDS011;5939;56.522;14.950;2023-02-28T09:08:30;1.77;;;1.50;;
11763;SDS011;5939;56.522;14.950;2023-02-28T09:10:56;1.57;;;1.43;;
11763;SDS011;5939;56.522;14.950;2023-02-28T09:13:26;1.57;;;1.40;;
11763;SDS011;5939;56.522;14.950;2023-02-28T09:15:52;1.90;;;1.47;;
11763;SDS011;5939;56.522;14.950;2023-02-28T09:18:18;2.47;;;1.50;;
11763;SDS011;5939;56.522;14.950;2023-02-28T09:20:44;1.60;;;1.40;;
11763;SDS011;5939;56.522;14.950;2023-02-28T09:23:10;1.83;;;1.50;;
11763;SDS011;5939;56.522;14.950;2023-02-28T09:25:37;1.83;;;1.43;;
11763;SDS011;5939;56.522;14.950;2023-02-28T09:28:09;1.90;;;1.20;;
11763;SDS011;5939;56.522;14.950;2023-02-28T09:30:36;1.77;;;1.40;;
11763;SDS011;5939;56.522;14.950;2023-02-28T09:33:01;1.40;;;1.30;;
11763;SDS011;5939;56.522;14.950;2023-02-28T09:35:28;2.40;;;1.70;;
11763;SDS011;5939;56.522;14.950;2023-02-28T09:37:55;1.50;;;1.40;;
11763;SDS011;5939;56.522;14.950;2023-02-28T09:40:23;2.80;;;1.67;;
11763;SDS011;5939;56.522;14.950;2023-02-28T09:42:52;1.67;;;1.47;;
11763;SDS011;5939;56.522;14.950;2023-02-28T09:47:56;1.80;;;1.43;;
11763;SDS011;5939;56.522;14.950;2023-02-28T09:52:57;1.80;;;1.33;;
11763;SDS011;5939;56.522;14.950;2023-02-28T09:55:29;3.13;;;1.47;;
11763;SDS011;5939;56.522;14.950;2023-02-28T09:58:04;1.67;;;1.20;;
11763;SDS011;5939;56.522;14.950;2023-02-28T10:00:35;1.70;;;1.60;;
11763;SDS011;5939;56.522;14.950;2023-02-28T10:06:11;1.87;;;1.53;;
11763;SDS011;5939;56.522;14.950;2023-02-28T10:09:06;1.77;;;1.40;;
11763;SDS011;5939;56.522;14.950;2023-02-28T10:11:42;1.80;;;1.40;;
11763;SDS011;5939;56.522;14.950;2023-02-28T10:14:12;1.30;;;1.20;;
11763;SDS011;5939;56.522;14.950;2023-02-28T10:19:33;1.47;;;1.27;;
11763;SDS011;5939;56.522;14.950;2023-02-28T10:22:08;1.23;;;1.13;;
11763;SDS011;5939;56.522;14.950;2023-02-28T10:24:41;1.30;;;1.20;;
11763;SDS011;5939;56.522;14.950;2023-02-28T10:27:15;1.83;;;1.50;;
11763;SDS011;5939;56.522;14.950;2023-02-28T10:29:49;1.37;;;1.20;;
11763;SDS011;5939;56.522;14.950;2023-02-28T10:32:20;1.67;;;1.30;;
11763;SDS011;5939;56.522;14.950;2023-02-28T10:35:18;1.30;;;1.20;;
11763;SDS011;5939;56.522;14.950;2023-02-28T10:37:46;1.47;;;1.27;;
11763;SDS011;5939;56.522;14.950;2023-02-28T10:42:42;1.30;;;1.20;;
11763;SDS011;5939;56.522;14.950;2023-02-28T10:45:37;1.90;;;1.23;;
11763;SDS011;5939;56.522;14.950;2023-02-28T10:48:04;1.17;;;1.07;;
11763;SDS011;5939;56.522;14.950;2023-02-28T10:50:52;1.20;;;1.10;;
11763;SDS011;5939;56.522;14.950;2023-02-28T10:58:29;1.80;;;1.00;;
11763;SDS011;5939;56.522;14.950;2023-02-28T11:01:24;1.30;;;1.20;;
11763;SDS011;5939;56.522;14.950;2023-02-28T11:03:58;1.30;;;1.10;;
11763;SDS011;5939;56.522;14.950;2023-02-28T11:06:26;1.47;;;1.03;;
11763;SDS011;5939;56.522;14.950;2023-02-28T11:09:00;1.23;;;1.13;;
11763;SDS011;5939;56.522;14.950;2023-02-28T11:11:30;1.20;;;1.10;;
11763;SDS011;5939;56.522;14.950;2023-02-28T11:14:14;1.23;;;1.10;;
11763;SDS011;5939;56.522;14.950;2023-02-28T11:16:49;1.10;;;1.00;;
11763;SDS011;5939;56.522;14.950;2023-02-28T11:19:27;1.27;;;1.17;;
11763;SDS011;5939;56.522;14.950;2023-02-28T11:22:00;1.77;;;1.10;;
11763;SDS011;5939;56.522;14.950;2023-02-28T11:24:29;1.77;;;0.90;;
11763;SDS011;5939;56.522;14.950;2023-02-28T11:27:06;1.07;;;0.97;;
11763;SDS011;5939;56.522;14.950;2023-02-28T11:29:49;0.80;;;0.80;;
11763;SDS011;5939;56.522;14.950;2023-02-28T11:32:21;0.90;;;0.90;;
11763;SDS011;5939;56.522;14.950;2023-02-28T11:37:35;0.97;;;0.90;;
11763;SDS011;5939;56.522;14.950;2023-02-28T11:40:05;0.80;;;0.80;;
11763;SDS011;5939;56.522;14.950;2023-02-28T11:42:43;1.10;;;1.00;;
11763;SDS011;5939;56.522;14.950;2023-02-28T11:56:53;1.23;;;1.13;;
11763;SDS011;5939;56.522;14.950;2023-02-28T12:02:35;0.80;;;0.80;;
11763;SDS011;5939;56.522;14.950;2023-02-28T12:10:29;1.47;;;0.90;;
11763;SDS011;5939;56.522;14.950;2023-02-28T12:13:18;1.30;;;0.97;;
11763;SDS011;5939;56.522;14.950;2023-02-28T12:20:49;0.83;;;0.83;;
11763;SDS011;5939;56.522;14.950;2023-02-28T12:28:59;1.00;;;0.90;;
11763;SDS011;5939;56.522;14.950;2023-02-28T12:31:36;0.90;;;0.90;;
11763;SDS011;5939;56.522;14.950;2023-02-28T12:34:16;1.13;;;1.03;;
11763;SDS011;5939;56.522;14.950;2023-02-28T12:36:47;0.77;;;0.77;;
11763;SDS011;5939;56.522;14.950;2023-02-28T12:39:18;1.10;;;0.90;;
11763;SDS011;5939;56.522;14.950;2023-02-28T12:41:48;1.83;;;1.00;;
11763;SDS011;5939;56.522;14.950;2023-02-28T12:44:32;0.80;;;0.80;;
11763;SDS011;5939;56.522;14.950;2023-02-28T12:47:14;0.80;;;0.80;;
11763;SDS011;5939;56.522;14.950;2023-02-28T12:49:52;0.80;;;0.80;;
11763;SDS011;5939;56.522;14.950;2023-02-28T12:52:48;0.80;;;0.80;;
11763;SDS011;5939;56.522;14.950;2023-02-28T12:55:35;0.77;;;0.77;;
11763;SDS011;5939;56.522;14.950;2023-02-28T13:11:33;0.70;;;0.70;;
11763;SDS011;5939;56.522;14.950;2023-02-28T13:17:32;0.80;;;0.80;;
11763;SDS011;5939;56.522;14.950;2023-02-28T13:24:55;0.70;;;0.70;;
11763;SDS011;5939;56.522;14.950;2023-02-28T13:29:50;0.83;;;0.83;;
11763;SDS011;5939;56.522;14.950;2023-02-28T13:32:30;0.90;;;0.80;;
11763;SDS011;5939;56.522;14.950;2023-02-28T13:39:50;1.83;;;0.70;;
11763;SDS011;5939;56.522;14.950;2023-02-28T13:42:32;0.70;;;0.70;;
11763;SDS011;5939;56.522;14.950;2023-02-28T13:47:28;0.70;;;0.70;;
11763;SDS011;5939;56.522;14.950;2023-02-28T13:55:54;0.70;;;0.70;;
11763;SDS011;5939;56.522;14.950;2023-02-28T13:58:44;0.80;;;0.80;;
11763;SDS011;5939;56.522;14.950;2023-02-28T14:06:51;1.00;;;0.80;;
11763;SDS011;5939;56.522;14.950;2023-02-28T14:09:32;0.80;;;0.80;;
11763;SDS011;5939;56.522;14.950;2023-02-28T14:15:26;0.90;;;0.77;;
11763;SDS011;5939;56.522;14.950;2023-02-28T14:17:58;0.80;;;0.80;;
11763;SDS011;5939;56.522;14.950;2023-02-28T14:20:27;0.73;;;0.73;;
11763;SDS011;5939;56.522;14.950;2023-02-28T14:23:06;0.80;;;0.80;;
11763;SDS011;5939;56.522;14.950;2023-02-28T14:31:09;0.70;;;0.70;;
11763;SDS011;5939;56.522;14.950;2023-02-28T14:36:39;1.00;;;0.90;;
11763;SDS011;5939;56.522;14.950;2023-02-28T14:39:10;0.73;;;0.73;;
11763;SDS011;5939;56.522;14.950;2023-02-28T14:41:40;0.70;;;0.70;;
11763;SDS011;5939;56.522;14.950;2023-02-28T14:44:15;0.90;;;0.90;;
11763;SDS011;5939;56.522;14.950;2023-02-28T14:46:54;0.77;;;0.77;;
11763;SDS011;5939;56.522;14.950;2023-02-28T14:52:20;0.77;;;0.77;;
11763;SDS011;5939;56.522;14.950;2023-02-28T14:54:53;0.70;;;0.70;;
11763;SDS011;5939;56.522;14.950;2023-02-28T14:57:31;1.00;;;0.80;;
11763;SDS011;5939;56.522;14.950;2023-02-28T15:02:51;0.63;;;0.63;;
11763;SDS011;5939;56.522;14.950;2023-02-28T15:05:26;0.70;;;0.70;;
11763;SDS011;5939;56.522;14.950;2023-02-28T15:08:03;0.73;;;0.73;;
11763;SDS011;5939;56.522;14.950;2023-02-28T15:10:38;0.70;;;0.70;;
11763;SDS011;5939;56.522;14.950;2023-02-28T15:13:11;0.73;;;0.73;;
11763;SDS011;5939;56.522;14.950;2023-02-28T15:15:41;0.80;;;0.80;;
11763;SDS011;5939;56.522;14.950;2023-02-28T15:20:49;0.77;;;0.77;;
11763;SDS011;5939;56.522;14.950;2023-02-28T15:23:16;0.73;;;0.73;;
11763;SDS011;5939;56.522;14.950;2023-02-28T15:25:44;0.67;;;0.67;;
11763;SDS011;5939;56.522;14.950;2023-02-28T15:28:12;0.80;;;0.70;;
11763;SDS011;5939;56.522;14.950;2023-02-28T15:30:50;0.70;;;0.70;;
11763;SDS011;5939;56.522;14.950;2023-02-28T15:33:22;0.80;;;0.70;;
11763;SDS011;5939;56.522;14.950;2023-02-28T15:35:50;0.90;;;0.80;;
11763;SDS011;5939;56.522;14.950;2023-02-28T15:38:25;0.70;;;0.70;;
11763;SDS011;5939;56.522;14.950;2023-02-28T15:40:53;0.80;;;0.80;;
11763;SDS011;5939;56.522;14.950;2023-02-28T15:45:56;0.73;;;0.73;;
11763;SDS011;5939;56.522;14.950;2023-02-28T15:51:12;1.10;;;1.00;;
11763;SDS011;5939;56.522;14.950;2023-02-28T15:54:05;0.70;;;0.70;;
11763;SDS011;5939;56.522;14.950;2023-02-28T15:59:14;0.77;;;0.77;;
11763;SDS011;5939;56.522;14.950;2023-02-28T16:01:46;0.70;;;0.70;;
11763;SDS011;5939;56.522;14.950;2023-02-28T16:04:13;0.90;;;0.60;;
11763;SDS011;5939;56.522;14.950;2023-02-28T16:09:27;0.70;;;0.70;;
11763;SDS011;5939;56.522;14.950;2023-02-28T16:11:55;0.80;;;0.80;;
11763;SDS011;5939;56.522;14.950;2023-02-28T16:14:26;0.70;;;0.70;;
11763;SDS011;5939;56.522;14.950;2023-02-28T16:16:56;0.80;;;0.80;;
11763;SDS011;5939;56.522;14.950;2023-02-28T16:19:28;0.80;;;0.80;;
11763;SDS011;5939;56.522;14.950;2023-02-28T16:21:54;1.33;;;1.23;;
11763;SDS011;5939;56.522;14.950;2023-02-28T16:24:19;0.70;;;0.70;;
11763;SDS011;5939;56.522;14.950;2023-02-28T16:26:46;0.70;;;0.70;;
11763;SDS011;5939;56.522;14.950;2023-02-28T16:29:13;0.90;;;0.70;;
11763;SDS011;5939;56.522;14.950;2023-02-28T16:31:48;0.60;;;0.60;;
11763;SDS011;5939;56.522;14.950;2023-02-28T16:34:13;0.73;;;0.67;;
11763;SDS011;5939;56.522;14.950;2023-02-28T16:36:39;0.70;;;0.70;;
11763;SDS011;5939;56.522;14.950;2023-02-28T16:39:06;0.63;;;0.60;;
11763;SDS011;5939;56.522;14.950;2023-02-28T16:41:31;0.60;;;0.60;;
11763;SDS011;5939;56.522;14.950;2023-02-28T16:43:59;0.73;;;0.73;;
11763;SDS011;5939;56.522;14.950;2023-02-28T16:46:34;0.77;;;0.77;;
11763;SDS011;5939;56.522;14.950;2023-02-28T16:49:00;0.70;;;0.70;;
11763;SDS011;5939;56.522;14.950;2023-02-28T16:51:26;0.70;;;0.70;;
11763;SDS011;5939;56.522;14.950;2023-02-28T16:53:52;0.67;;;0.67;;
11763;SDS011;5939;56.522;14.950;2023-02-28T16:56:22;0.70;;;0.70;;
11763;SDS011;5939;56.522;14.950;2023-02-28T16:58:50;0.97;;;0.80;;
11763;SDS011;5939;56.522;14.950;2023-02-28T17:01:16;0.80;;;0.80;;
11763;SDS011;5939;56.522;14.950;2023-02-28T17:03:46;0.60;;;0.60;;
11763;SDS011;5939;56.522;14.950;2023-02-28T17:06:20;0.70;;;0.70;;
11763;SDS011;5939;56.522;14.950;2023-02-28T17:08:52;0.70;;;0.70;;
11763;SDS011;5939;56.522;14.950;2023-02-28T17:11:19;0.87;;;0.70;;
11763;SDS011;5939;56.522;14.950;2023-02-28T17:13:45;0.80;;;0.80;;
11763;SDS011;5939;56.522;14.950;2023-02-28T17:16:30;1.00;;;0.90;;
11763;SDS011;5939;56.522;14.950;2023-02-28T17:19:04;0.80;;;0.80;;
11763;SDS011;5939;56.522;14.950;2023-02-28T17:21:31;0.70;;;0.70;;
11763;SDS011;5939;56.522;14.950;2023-02-28T17:23:59;0.70;;;0.70;;
11763;SDS011;5939;56.522;14.950;2023-02-28T17:26:25;0.73;;;0.73;;
11763;SDS011;5939;56.522;14.950;2023-02-28T17:28:53;1.00;;;0.70;;
11763;SDS011;5939;56.522;14.950;2023-02-28T17:31:21;0.87;;;0.83;;
11763;SDS011;5939;56.522;14.950;2023-02-28T17:33:47;0.87;;;0.80;;
11763;SDS011;5939;56.522;14.950;2023-02-28T17:36:14;0.83;;;0.73;;
11763;SDS011;5939;56.522;14.950;2023-02-28T17:38:41;0.90;;;0.90;;
11763;SDS011;5939;56.522;14.950;2023-02-28T17:41:10;1.20;;;0.90;;
11763;SDS011;5939;56.522;14.950;2023-02-28T17:43:36;0.70;;;0.60;;
11763;SDS011;5939;56.522;14.950;2023-02-28T17:46:02;0.80;;;0.80;;
11763;SDS011;5939;56.522;14.950;2023-02-28T17:48:30;0.70;;;0.70;;